Correntes, Brazil
Current Conditions -  °F | °C
As of 1:00 PM on Saturday 25 Oct 2014 (Local Time) from SBMO Reporting Station
Few Clouds Few Clouds  
Wind Chill: 28°   Ceiling: Unl
Heat Index: 29°   Visibility: 6mi
Dew Point: 19°   Wind: 13mph
Humidity: 58%   Direction: 100°E
Pressure: 29.94"   Gusts: NA
Location:  9.13°S, 36.33°W
Report Text: SBMO 251600Z 10011KT 9999 FEW020 28/19 Q1014
Loading
Personal Weather Stations






























Interactive Weather Map
Tropical Storm Tracking
New forecast layout! Learn more

10-Day Weather Forecast

Advertisements
Track Severe Weather on mobile